Time;durP1;ratioP1;P1;durP2;ratioP2;P2;SDS_P1;SDS_P2;PMS_P1;PMS_P2;Temp;Humidity;BMP_temperature;BMP_pressure;BME280_temperature;BME280_humidity;BME280_pressure;Samples;Min_cycle;Max_cycle;Signal;HPM_P1;HPM_P2
2023/09/15 00:00:23;;;;;;;3.65;2.20;;;;;;;13.60;100.00;100103.06;12179088;19;20042;-86
2023/09/15 00:04:25;;;;;;;7.40;2.38;;;;;;;13.58;100.00;100102.47;12201100;19;20018;-85
2023/09/15 00:08:28;;;;;;;4.50;2.10;;;;;;;13.58;100.00;100110.78;12200881;19;20043;-85
2023/09/15 00:12:29;;;;;;;7.13;2.10;;;;;;;13.51;100.00;100107.41;12178515;19;20103;-87
2023/09/15 00:16:31;;;;;;;7.50;3.38;;;;;;;13.44;100.00;100109.53;12201675;19;20461;-86
2023/09/15 00:20:33;;;;;;;4.70;2.00;;;;;;;13.41;100.00;100108.16;12202098;19;20014;-85
2023/09/15 00:24:36;;;;;;;5.25;2.30;;;;;;;13.36;100.00;100107.25;12178888;19;20030;-86
2023/09/15 00:28:37;;;;;;;6.85;2.35;;;;;;;13.30;100.00;100097.25;12198704;19;20010;-85
2023/09/15 00:32:39;;;;;;;7.38;2.22;;;;;;;13.29;100.00;100099.16;12186962;19;20006;-86
2023/09/15 00:36:45;;;;;;;;;;;;;;;13.27;100.00;100104.13;12174433;19;20031;-86
2023/09/15 00:40:47;;;;;;;7.93;2.95;;;;;;;13.27;100.00;100101.38;12198925;19;20330;-86
2023/09/15 00:44:51;;;;;;;5.50;2.67;;;;;;;13.24;100.00;100099.09;12201215;19;20011;-84
2023/09/15 00:48:55;;;;;;;5.50;2.50;;;;;;;13.17;100.00;100096.50;12176563;19;20019;-84
2023/09/15 00:53:04;;;;;;;5.78;2.72;;;;;;;13.16;100.00;100103.13;12197031;19;20003;-85
2023/09/15 00:57:07;;;;;;;7.10;2.72;;;;;;;13.12;100.00;100098.41;12179809;19;20083;-84
2023/09/15 01:01:10;;;;;;;9.77;2.80;;;;;;;13.09;100.00;100093.38;12196037;19;20461;-85
2023/09/15 01:05:19;;;;;;;6.43;2.78;;;;;;;13.04;100.00;100088.63;12200999;19;20045;-86
2023/09/15 01:09:22;;;;;;;6.72;2.70;;;;;;;12.96;100.00;100091.84;12175338;19;20604;-84
2023/09/15 01:13:24;;;;;;;7.45;2.63;;;;;;;12.92;100.00;100097.06;12213771;19;20007;-86
2023/09/15 01:17:32;;;;;;;3.67;1.77;;;;;;;12.88;100.00;100097.81;12225654;19;20017;-84
2023/09/15 01:22:01;;;;;;;9.02;3.10;;;;;;;12.81;100.00;100089.72;12177457;19;20497;-86
2023/09/15 01:26:41;;;;;;;5.63;2.47;;;;;;;12.80;100.00;100081.69;12195518;19;20011;-86
2023/09/15 01:30:44;;;;;;;7.13;2.88;;;;;;;12.75;100.00;100086.06;12188618;19;20082;-86
2023/09/15 01:34:52;;;;;;;8.45;3.08;;;;;;;12.71;100.00;100086.84;12206640;19;20017;-85
2023/09/15 01:38:53;;;;;;;7.10;3.17;;;;;;;12.68;100.00;100082.66;12208647;19;20557;-85
2023/09/15 01:42:56;;;;;;;7.63;2.33;;;;;;;12.66;100.00;100086.78;12188737;19;20018;-86
2023/09/15 01:46:58;;;;;;;6.63;2.70;;;;;;;12.70;100.00;100082.38;12208170;19;20374;-86
2023/09/15 01:51:00;;;;;;;7.03;2.63;;;;;;;12.71;100.00;100076.63;12191816;19;19998;-86
2023/09/15 01:55:03;;;;;;;5.88;3.20;;;;;;;12.73;100.00;100076.34;12191236;19;20011;-85
2023/09/15 01:59:04;;;;;;;4.72;2.20;;;;;;;12.82;100.00;100074.81;12198871;19;20014;-83
2023/09/15 02:03:06;;;;;;;7.00;2.95;;;;;;;12.86;100.00;100087.03;12210408;19;20049;-85
2023/09/15 02:07:09;;;;;;;7.33;2.53;;;;;;;12.81;100.00;100080.59;12226620;19;20057;-84
2023/09/15 02:11:11;;;;;;;7.30;3.15;;;;;;;12.75;100.00;100085.22;12217190;19;20015;-85
2023/09/15 02:15:14;;;;;;;8.37;2.60;;;;;;;12.72;100.00;100078.28;12171609;19;20010;-86
2023/09/15 02:19:16;;;;;;;5.32;2.60;;;;;;;12.73;100.00;100082.72;12190761;19;20251;-85
2023/09/15 02:23:18;;;;;;;11.73;3.35;;;;;;;12.71;100.00;100073.84;12189338;19;21757;-84
2023/09/15 02:27:20;;;;;;;6.63;2.70;;;;;;;12.69;100.00;100076.03;12173185;19;20003;-86
2023/09/15 02:31:22;;;;;;;7.13;2.47;;;;;;;12.66;100.00;100067.41;12195268;19;20007;-84
2023/09/15 02:35:24;;;;;;;10.57;3.10;;;;;;;12.63;100.00;100067.94;12195840;19;20951;-87
2023/09/15 02:39:26;;;;;;;8.43;4.07;;;;;;;12.59;100.00;100064.03;12176412;19;20369;-86
2023/09/15 02:43:28;;;;;;;6.07;3.00;;;;;;;12.51;100.00;100063.34;12196788;19;20033;-85
2023/09/15 02:47:30;;;;;;;7.75;2.60;;;;;;;12.47;100.00;100061.38;12194385;19;20006;-86
2023/09/15 02:51:32;;;;;;;6.43;2.85;;;;;;;12.45;100.00;100058.84;12178401;19;20002;-86
2023/09/15 02:55:37;;;;;;;5.38;2.45;;;;;;;12.43;100.00;100055.53;12193164;19;20033;-84
2023/09/15 02:59:39;;;;;;;10.85;2.90;;;;;;;12.46;100.00;100046.72;12199882;19;20010;-86
2023/09/15 03:03:43;;;;;;;6.15;3.10;;;;;;;12.48;100.00;100054.75;12178868;19;20029;-84
2023/09/15 03:07:45;;;;;;;6.20;2.73;;;;;;;12.47;100.00;100062.22;12200622;19;20011;-85
2023/09/15 03:11:48;;;;;;;7.05;2.70;;;;;;;12.43;100.00;100057.44;12238295;19;20010;-83
2023/09/15 03:15:50;;;;;;;6.68;2.42;;;;;;;12.37;100.00;100059.28;12220475;19;20018;-83
2023/09/15 03:19:53;;;;;;;;;;;;;;;12.29;100.00;100051.47;12243033;19;20039;-84
2023/09/15 03:23:55;;;;;;;7.13;2.70;;;;;;;12.26;100.00;100052.81;12245559;19;19918;-84
2023/09/15 03:27:58;;;;;;;9.10;3.97;;;;;;;12.22;100.00;100050.81;12190484;19;20026;-83
2023/09/15 03:32:00;;;;;;;6.05;2.95;;;;;;;12.17;100.00;100051.59;12189874;19;20104;-85
2023/09/15 03:36:03;;;;;;;7.32;2.50;;;;;;;12.14;100.00;100045.75;12170912;19;20075;-84
2023/09/15 03:40:07;;;;;;;6.03;2.80;;;;;;;12.15;100.00;100041.88;12189543;19;20007;-84
2023/09/15 03:44:09;;;;;;;10.02;3.10;;;;;;;12.10;100.00;100045.38;12191755;19;20280;-83
2023/09/15 03:48:11;;;;;;;5.80;2.97;;;;;;;12.12;100.00;100043.22;12166797;19;20011;-84
2023/09/15 03:52:13;;;;;;;10.13;2.63;;;;;;;12.17;100.00;100042.47;12192500;19;20006;-84
2023/09/15 03:56:15;;;;;;;8.00;3.55;;;;;;;12.16;100.00;100044.38;12187514;19;20006;-83
2023/09/15 04:00:19;;;;;;;11.23;3.25;;;;;;;12.17;100.00;100039.69;12163781;19;20014;-84
2023/09/15 04:04:21;;;;;;;5.88;2.72;;;;;;;12.18;100.00;100044.97;12187384;19;20384;-84
2023/09/15 04:08:22;;;;;;;6.40;2.72;;;;;;;12.20;100.00;100045.53;12190990;19;20020;-85
2023/09/15 04:12:24;;;;;;;7.80;2.53;;;;;;;12.25;100.00;100044.75;12170367;19;20011;-83
2023/09/15 04:16:26;;;;;;;5.32;2.80;;;;;;;12.28;100.00;100047.00;12189402;19;20604;-83
2023/09/15 04:20:28;;;;;;;7.57;2.58;;;;;;;12.30;100.00;100040.16;12185596;19;20194;-85
2023/09/15 04:24:46;;;;;;;6.65;3.05;;;;;;;12.37;100.00;100034.44;12168639;19;20030;-84
2023/09/15 04:28:48;;;;;;;6.72;3.17;;;;;;;12.41;100.00;100032.84;12184548;19;20054;-84
2023/09/15 04:32:51;;;;;;;7.05;3.38;;;;;;;12.39;100.00;100032.25;12186673;19;20011;-85
2023/09/15 04:36:53;;;;;;;4.20;2.47;;;;;;;12.42;100.00;100040.03;12159820;19;20077;-84
2023/09/15 04:40:56;;;;;;;5.13;2.70;;;;;;;12.43;100.00;100033.44;12182633;19;20031;-84
2023/09/15 04:44:57;;;;;;;5.47;2.60;;;;;;;12.45;100.00;100038.69;12176525;19;20461;-83
2023/09/15 04:48:59;;;;;;;6.30;2.73;;;;;;;12.49;100.00;100048.13;12160463;19;20006;-83
2023/09/15 04:53:04;;;;;;;6.82;2.63;;;;;;;12.54;100.00;100043.50;12179508;19;20572;-81
2023/09/15 04:57:06;;;;;;;5.43;2.35;;;;;;;12.57;100.00;100039.38;12155869;19;20511;-83
2023/09/15 05:01:08;;;;;;;8.67;2.83;;;;;;;12.59;100.00;100042.75;12177839;19;20013;-83
2023/09/15 05:05:11;;;;;;;9.98;3.13;;;;;;;12.63;100.00;100043.88;12181511;19;20469;-83
2023/09/15 05:09:20;;;;;;;7.18;3.10;;;;;;;12.64;100.00;100034.53;12158853;19;20006;-82
2023/09/15 05:13:23;;;;;;;9.88;3.25;;;;;;;12.60;100.00;100038.88;12181410;19;20013;-83
2023/09/15 05:17:26;;;;;;;5.20;2.72;;;;;;;12.54;100.00;100042.66;12182904;19;20470;-83
2023/09/15 05:21:28;;;;;;;8.35;3.38;;;;;;;12.48;100.00;100047.28;12163343;19;20006;-83
2023/09/15 05:25:30;;;;;;;7.28;2.90;;;;;;;12.42;100.00;100053.00;12181069;19;20011;-83
2023/09/15 05:29:33;;;;;;;6.90;2.97;;;;;;;12.35;100.00;100055.16;12185661;19;20007;-83
2023/09/15 05:33:35;;;;;;;;;;;;;;;12.26;100.00;100054.75;12162302;19;20106;-85
2023/09/15 05:37:37;;;;;;;7.20;2.45;;;;;;;12.21;100.00;100063.78;12183128;19;19910;-84
2023/09/15 05:41:39;;;;;;;6.40;2.53;;;;;;;12.23;100.00;100069.91;12182398;19;20090;-83
2023/09/15 05:45:41;;;;;;;6.97;2.65;;;;;;;12.24;100.00;100066.03;12162144;19;20018;-84
2023/09/15 05:49:43;;;;;;;8.20;4.40;;;;;;;12.29;100.00;100060.59;12190237;19;20014;-85
2023/09/15 05:53:44;;;;;;;7.63;2.80;;;;;;;12.28;100.00;100064.47;12185840;19;20650;-84
2023/09/15 05:57:46;;;;;;;8.98;3.22;;;;;;;12.34;100.00;100067.28;12172520;19;20029;-84
2023/09/15 06:01:48;;;;;;;13.02;3.15;;;;;;;12.36;100.00;100065.09;12195935;19;20097;-83
2023/09/15 06:05:50;;;;;;;12.23;3.43;;;;;;;12.37;100.00;100062.06;12193153;19;20701;-83
2023/09/15 06:09:52;;;;;;;6.28;3.10;;;;;;;12.42;100.00;100058.53;12170194;19;20011;-82
2023/09/15 06:13:54;;;;;;;11.90;3.50;;;;;;;12.46;100.00;100062.47;12187303;19;20030;-83
2023/09/15 06:17:55;;;;;;;14.68;3.60;;;;;;;12.53;100.00;100065.88;12191134;19;20011;-85
2023/09/15 06:21:57;;;;;;;9.65;3.50;;;;;;;12.63;100.00;100066.00;12170140;19;20039;-83
2023/09/15 06:25:59;;;;;;;6.72;3.08;;;;;;;12.75;100.00;100061.16;12192541;19;20011;-85
2023/09/15 06:30:03;;;;;;;6.53;3.03;;;;;;;12.88;100.00;100056.34;12164940;19;20017;-82
2023/09/15 06:34:05;;;;;;;7.43;3.45;;;;;;;13.00;100.00;100059.81;12188509;19;20061;-83
2023/09/15 06:38:07;;;;;;;5.95;2.80;;;;;;;13.08;100.00;100064.03;12188070;19;20003;-83
2023/09/15 06:42:08;;;;;;;7.07;3.22;;;;;;;13.21;100.00;100064.47;12165169;19;20073;-82
2023/09/15 06:46:18;;;;;;;6.20;3.40;;;;;;;13.37;100.00;100064.63;12185684;19;20034;-82
2023/09/15 06:50:20;;;;;;;9.35;3.25;;;;;;;13.54;100.00;100056.22;12191320;19;20076;-82
2023/09/15 06:54:22;;;;;;;8.10;3.00;;;;;;;13.74;100.00;100055.53;12163459;19;20011;-83
2023/09/15 06:58:24;;;;;;;6.03;3.67;;;;;;;13.90;100.00;100058.16;12189672;19;20006;-83
2023/09/15 07:02:26;;;;;;;10.88;3.25;;;;;;;14.10;100.00;100057.47;12187420;19;20090;-82
2023/09/15 07:06:28;;;;;;;7.45;3.15;;;;;;;14.32;100.00;100056.50;12165287;19;20006;-83
2023/09/15 07:10:30;;;;;;;5.22;2.80;;;;;;;14.54;100.00;100057.19;12185697;19;20010;-82
2023/09/15 07:14:32;;;;;;;5.03;3.03;;;;;;;14.77;100.00;100063.41;12185398;19;20923;-83
2023/09/15 07:18:33;;;;;;;8.05;3.63;;;;;;;15.03;100.00;100059.59;12166718;19;20062;-83
2023/09/15 07:22:35;;;;;;;7.25;3.45;;;;;;;15.34;100.00;100065.22;12188392;19;20010;-83
2023/09/15 07:26:37;;;;;;;7.33;4.20;;;;;;;15.63;100.00;100057.19;12188227;19;20022;-83
2023/09/15 07:30:39;;;;;;;5.88;3.25;;;;;;;15.92;100.00;100060.28;12165497;19;21006;-82
2023/09/15 07:34:41;;;;;;;8.02;3.38;;;;;;;16.20;100.00;100057.19;12186317;19;20003;-82
2023/09/15 07:38:42;;;;;;;8.82;3.60;;;;;;;16.47;100.00;100054.88;12188471;19;20018;-83
2023/09/15 07:42:46;;;;;;;7.07;3.70;;;;;;;16.76;100.00;100057.84;12164702;19;20014;-83
2023/09/15 07:46:48;;;;;;;6.03;3.70;;;;;;;17.07;100.00;100043.78;12185995;19;20686;-83
2023/09/15 07:50:50;;;;;;;7.43;3.50;;;;;;;17.46;100.00;100054.97;12186412;19;21023;-83
2023/09/15 07:54:52;;;;;;;6.00;3.57;;;;;;;17.80;100.00;100053.34;12164178;19;20011;-82
2023/09/15 07:58:54;;;;;;;5.07;3.30;;;;;;;18.14;100.00;100056.06;12183468;19;20027;-83
2023/09/15 08:02:56;;;;;;;7.72;3.88;;;;;;;18.45;100.00;100053.78;12186134;19;20007;-84
2023/09/15 08:06:58;;;;;;;6.13;3.80;;;;;;;18.77;100.00;100046.72;12165856;19;20360;-84
2023/09/15 08:11:00;;;;;;;6.60;3.38;;;;;;;19.07;100.00;100053.91;12184887;19;20465;-87
2023/09/15 08:15:11;;;;;;;6.15;3.25;;;;;;;19.36;100.00;100050.94;12181702;19;20014;-87
2023/09/15 08:19:15;;;;;;;7.53;3.80;;;;;;;19.68;100.00;100043.75;12162299;19;20009;-88
2023/09/15 08:23:19;;;;;;;8.00;3.45;;;;;;;19.94;100.00;100044.16;12190508;19;20013;-87
2023/09/15 08:27:21;;;;;;;8.10;4.30;;;;;;;20.22;100.00;100042.25;12168564;19;20030;-87
2023/09/15 08:31:25;;;;;;;7.35;4.47;;;;;;;20.39;100.00;100038.84;12192718;19;20007;-87
2023/09/15 08:35:28;;;;;;;7.25;3.97;;;;;;;20.43;100.00;100035.09;12216955;19;20126;-86
2023/09/15 08:39:29;;;;;;;8.43;4.03;;;;;;;20.59;100.00;100032.06;12196784;19;21121;-86
2023/09/15 08:43:32;;;;;;;8.60;3.67;;;;;;;20.73;100.00;100032.84;12193982;19;20007;-86
2023/09/15 08:47:39;;;;;;;11.10;6.80;;;;;;;20.93;98.84;100040.81;12190487;19;20029;-86
2023/09/15 08:51:43;;;;;;;10.90;5.18;;;;;;;21.04;98.53;100035.00;12168959;19;20023;-86
2023/09/15 08:55:45;;;;;;;8.50;4.68;;;;;;;21.14;95.58;100031.97;12185340;19;20045;-86
2023/09/15 08:59:50;;;;;;;7.07;4.47;;;;;;;21.30;95.88;100036.09;12186127;19;20003;-86
2023/09/15 09:03:54;;;;;;;6.88;4.18;;;;;;;21.50;92.73;100034.78;12163890;19;20017;-87
2023/09/15 09:07:59;;;;;;;7.88;3.90;;;;;;;21.70;91.99;100036.28;12181462;19;20026;-85
2023/09/15 09:12:01;;;;;;;10.32;4.88;;;;;;;21.85;89.52;100037.84;12164345;19;20007;-87
2023/09/15 09:16:05;;;;;;;10.38;4.32;;;;;;;22.04;90.37;100023.59;12182480;19;20011;-87
2023/09/15 09:20:10;;;;;;;7.82;5.22;;;;;;;22.19;85.99;100028.00;12185245;19;20018;-87
2023/09/15 09:24:14;;;;;;;9.20;5.15;;;;;;;22.30;87.85;100026.59;12164042;19;20475;-87
2023/09/15 09:28:16;;;;;;;7.65;4.68;;;;;;;22.54;84.96;100020.56;12177775;19;20003;-87
2023/09/15 09:32:19;;;;;;;6.95;4.53;;;;;;;22.63;83.31;100018.63;12197024;19;20497;-89
2023/09/15 09:36:21;;;;;;;5.60;4.00;;;;;;;22.80;83.78;100015.03;12177304;19;20026;-88
2023/09/15 09:40:23;;;;;;;7.95;4.65;;;;;;;22.94;83.52;100012.09;12200753;19;20252;-87
2023/09/15 09:44:25;;;;;;;8.33;4.90;;;;;;;23.15;80.23;100004.72;12197566;19;20106;-87
2023/09/15 09:48:39;;;;;;;7.63;5.07;;;;;;;23.30;78.23;100000.59;12176160;19;20255;-88
2023/09/15 09:52:42;;;;;;;8.43;4.57;;;;;;;23.46;76.07;99998.09;12206531;19;20268;-85
2023/09/15 09:57:30;;;;;;;8.10;4.63;;;;;;;23.49;75.19;99997.44;12200613;19;20347;-85
2023/09/15 10:01:41;;;;;;;6.80;4.30;;;;;;;23.63;74.14;99992.47;12111119;19;2004555;-88
2023/09/15 10:05:48;;;;;;;8.02;4.50;;;;;;;23.80;73.96;99994.47;12221153;19;20453;-86
2023/09/15 10:09:50;;;;;;;7.18;4.38;;;;;;;24.10;73.50;99997.38;12189770;19;20031;-88
2023/09/15 10:13:52;;;;;;;6.63;3.83;;;;;;;24.02;72.18;99992.59;12226822;19;20007;-88
2023/09/15 10:17:54;;;;;;;6.32;4.32;;;;;;;24.07;74.24;99978.34;12202988;19;20014;-87
2023/09/15 10:21:57;;;;;;;5.72;4.22;;;;;;;24.17;71.14;99974.31;12186797;19;20495;-88
2023/09/15 10:26:02;;;;;;;7.00;3.92;;;;;;;24.43;71.51;99980.69;12198191;19;20011;-86
2023/09/15 10:30:07;;;;;;;6.32;4.05;;;;;;;24.74;67.64;99973.88;12182095;19;20497;-89
2023/09/15 10:34:09;;;;;;;6.85;4.28;;;;;;;24.89;67.35;99970.47;12207612;19;20010;-88
2023/09/15 10:38:11;;;;;;;7.10;4.40;;;;;;;25.06;66.41;99968.72;12197086;19;20007;-85
2023/09/15 10:42:13;;;;;;;8.05;4.13;;;;;;;25.14;65.22;99963.03;12189619;19;20006;-88
2023/09/15 10:46:15;;;;;;;7.90;3.83;;;;;;;25.21;64.27;99959.66;12199554;19;20014;-85
2023/09/15 10:50:29;;;;;;;6.53;3.72;;;;;;;25.30;63.30;99946.31;12222457;19;19998;-87
2023/09/15 10:54:33;;;;;;;4.85;3.55;;;;;;;25.42;62.62;99946.34;12199342;19;20006;-85
2023/09/15 10:58:36;;;;;;;5.13;3.90;;;;;;;25.49;60.31;99940.13;12223696;19;20014;-86
2023/09/15 11:02:39;;;;;;;4.68;3.47;;;;;;;25.59;62.09;99931.25;12222584;19;20481;-85
2023/09/15 11:06:41;;;;;;;4.45;3.30;;;;;;;25.86;59.68;99927.00;12191143;19;20014;-86
2023/09/15 11:10:43;;;;;;;6.47;3.35;;;;;;;25.93;57.95;99926.41;12197698;19;20093;-86
2023/09/15 11:14:45;;;;;;;3.55;2.92;;;;;;;26.14;55.34;99912.22;12196395;19;20022;-86
2023/09/15 11:18:47;;;;;;;5.97;3.50;;;;;;;26.10;56.09;99917.75;12175036;19;20010;-85
2023/09/15 11:22:54;;;;;;;5.43;3.50;;;;;;;26.32;57.09;99918.44;12202145;19;20007;-86
2023/09/15 11:26:56;;;;;;;4.25;3.05;;;;;;;26.49;54.89;99915.41;12200413;19;20062;-87
2023/09/15 11:30:58;;;;;;;5.10;3.13;;;;;;;26.56;53.95;99897.84;12173550;19;20006;-86
2023/09/15 11:35:01;;;;;;;;;;;;;;;26.83;54.69;99904.78;12206414;19;20011;-85
2023/09/15 11:39:15;;;;;;;5.72;3.42;;;;;;;27.06;53.38;99896.56;12194790;19;19925;-85
2023/09/15 11:43:22;;;;;;;5.22;3.45;;;;;;;27.54;53.54;99889.06;12260270;19;20035;-86
2023/09/15 11:47:30;;;;;;;4.53;3.10;;;;;;;28.08;48.67;99876.34;12258344;19;20006;-85
2023/09/15 11:51:34;;;;;;;6.60;3.50;;;;;;;28.79;47.43;99872.41;12226645;19;20005;-88
2023/09/15 11:55:37;;;;;;;4.47;3.15;;;;;;;29.22;45.68;99870.50;12210468;19;20014;-85
2023/09/15 11:59:39;;;;;;;4.32;3.03;;;;;;;29.64;41.59;99861.19;12199734;19;20022;-85
2023/09/15 12:03:41;;;;;;;3.90;2.83;;;;;;;29.78;42.68;99857.81;12156555;19;20007;-85
2023/09/15 12:07:47;;;;;;;4.03;2.70;;;;;;;29.96;43.30;99850.41;12200117;19;20006;-86
2023/09/15 12:11:50;;;;;;;4.32;3.13;;;;;;;30.29;42.17;99854.63;12205129;19;20066;-85
2023/09/15 12:15:51;;;;;;;5.32;3.03;;;;;;;30.86;40.16;99846.94;12168877;19;20027;-86
2023/09/15 12:19:59;;;;;;;;;;;;;;;31.07;40.43;99837.84;12195092;19;20030;-86
2023/09/15 12:24:09;;;;;;;4.53;2.80;;;;;;;31.52;38.12;99833.09;12179497;19;19938;-85
2023/09/15 12:28:11;;;;;;;4.30;3.05;;;;;;;32.02;37.57;99823.41;12187950;19;20258;-86
2023/09/15 12:32:13;;;;;;;4.75;3.00;;;;;;;32.64;36.32;99823.44;12190231;19;20022;-86
2023/09/15 12:36:16;;;;;;;3.42;2.58;;;;;;;33.02;34.63;99816.28;12177270;19;20011;-86
2023/09/15 12:40:18;;;;;;;3.72;2.75;;;;;;;33.11;34.75;99819.59;12192862;19;20006;-85
2023/09/15 12:44:22;;;;;;;3.70;3.10;;;;;;;33.37;34.58;99806.19;12197785;19;20019;-87
2023/09/15 12:48:24;;;;;;;4.78;3.03;;;;;;;33.72;34.16;99796.06;12174623;19;20023;-86
2023/09/15 12:52:26;;;;;;;3.80;3.05;;;;;;;34.09;33.22;99798.53;12194722;19;20029;-86
2023/09/15 12:56:31;;;;;;;3.05;2.47;;;;;;;34.73;33.35;99789.00;12192411;19;20006;-86
2023/09/15 13:00:33;;;;;;;5.18;3.20;;;;;;;34.86;31.72;99781.59;12170389;19;20046;-87
2023/09/15 13:04:35;;;;;;;4.63;2.97;;;;;;;34.62;32.25;99779.63;12195807;19;20006;-87
2023/09/15 13:08:37;;;;;;;4.10;3.05;;;;;;;33.80;31.21;99775.66;12207357;19;20014;-87
2023/09/15 13:12:39;;;;;;;3.70;3.05;;;;;;;32.74;33.46;99774.16;12176930;19;20031;-90
2023/09/15 13:16:42;;;;;;;3.80;2.75;;;;;;;31.50;34.02;99772.03;12189545;19;20057;-87
2023/09/15 13:20:43;;;;;;;4.40;2.58;;;;;;;30.66;34.52;99760.09;12187738;19;20102;-85
2023/09/15 13:24:45;;;;;;;;;;;;;;;29.96;36.01;99750.97;12168754;19;20007;-84
2023/09/15 13:28:47;;;;;;;3.25;2.28;;;;;;;29.61;36.58;99753.22;12189621;19;20334;-86
2023/09/15 13:32:49;;;;;;;3.95;2.53;;;;;;;29.24;37.48;99750.94;12189938;19;20002;-85
2023/09/15 13:36:53;;;;;;;;;;;;;;;28.87;38.08;99757.09;12170070;19;20006;-85
2023/09/15 13:40:54;;;;;;;4.00;2.67;;;;;;;29.57;37.25;99744.63;12191933;19;19945;-86
2023/09/15 13:44:56;;;;;;;3.40;2.40;;;;;;;30.46;36.08;99741.53;12188609;19;20030;-84
2023/09/15 13:48:59;;;;;;;3.33;2.15;;;;;;;31.48;35.30;99731.75;12164389;19;20078;-85
2023/09/15 13:53:01;;;;;;;3.30;2.30;;;;;;;32.26;34.52;99722.97;12176575;19;20042;-85
2023/09/15 13:57:03;;;;;;;4.07;2.67;;;;;;;32.75;33.67;99720.75;12179579;19;20015;-84
2023/09/15 14:01:22;;;;;;;3.47;2.30;;;;;;;32.26;34.77;99725.81;12193928;19;20069;-85
2023/09/15 14:05:28;;;;;;;4.28;2.47;;;;;;;31.46;34.42;99717.09;12203085;19;20070;-86
2023/09/15 14:09:35;;;;;;;5.07;2.60;;;;;;;30.54;35.37;99718.50;12175373;19;20085;-85
2023/09/15 14:13:37;;;;;;;4.30;2.13;;;;;;;30.01;35.73;99714.91;12200929;19;20340;-85
2023/09/15 14:17:39;;;;;;;3.33;2.40;;;;;;;29.29;36.21;99706.03;12211372;19;21970;-85
2023/09/15 14:21:44;;;;;;;5.80;2.45;;;;;;;28.66;37.38;99705.63;12207956;19;20007;-86
2023/09/15 14:25:47;;;;;;;4.85;2.20;;;;;;;28.32;37.74;99700.47;12228334;19;20813;-85
2023/09/15 14:29:49;;;;;;;4.13;2.25;;;;;;;28.42;37.99;99699.06;12243589;19;20017;-85
2023/09/15 14:33:50;;;;;;;2.70;1.95;;;;;;;28.46;38.49;99697.13;12222859;19;20017;-85
2023/09/15 14:37:52;;;;;;;4.22;2.35;;;;;;;28.81;38.19;99699.03;12249145;19;20014;-86
2023/09/15 14:41:57;;;;;;;3.90;2.40;;;;;;;29.45;37.72;99703.06;12263369;19;20002;-85
2023/09/15 14:46:08;;;;;;;3.67;2.38;;;;;;;29.50;37.66;99697.06;12241174;19;19998;-86
2023/09/15 14:50:11;;;;;;;6.22;3.03;;;;;;;29.51;38.27;99701.56;12260870;19;20349;-86
2023/09/15 14:54:15;;;;;;;;;;;;;;;29.74;37.58;99695.03;12239313;19;19995;-85
2023/09/15 14:58:16;;;;;;;4.20;2.83;;;;;;;30.02;37.04;99688.97;12252802;19;19919;-86
2023/09/15 15:02:21;;;;;;;4.38;2.72;;;;;;;29.69;37.65;99686.84;12219397;19;20017;-86
2023/09/15 15:06:28;;;;;;;4.82;3.20;;;;;;;29.59;37.67;99687.47;12197005;19;20018;-86
2023/09/15 15:10:30;;;;;;;5.10;2.75;;;;;;;29.27;38.00;99680.06;12241192;19;20393;-86
2023/09/15 15:14:32;;;;;;;4.40;2.95;;;;;;;29.12;38.42;99671.66;12226380;19;20011;-83
2023/09/15 15:18:34;;;;;;;4.18;2.80;;;;;;;28.94;39.11;99660.78;12199887;19;20006;-87
2023/09/15 15:22:36;;;;;;;3.65;2.63;;;;;;;28.59;39.56;99664.63;12224394;19;20026;-86
2023/09/15 15:26:38;;;;;;;5.60;2.80;;;;;;;28.25;40.54;99666.31;12216367;19;20647;-86
2023/09/15 15:30:40;;;;;;;4.28;3.20;;;;;;;28.11;40.50;99660.31;12201598;19;20007;-86
2023/09/15 15:34:44;;;;;;;6.32;3.20;;;;;;;27.98;41.64;99659.66;12214804;19;20029;-86
2023/09/15 15:38:47;;;;;;;4.10;3.00;;;;;;;27.89;41.83;99656.22;12215718;19;20010;-84
2023/09/15 15:42:49;;;;;;;5.22;3.30;;;;;;;27.64;42.83;99653.63;12193658;19;20003;-87
2023/09/15 15:46:58;;;;;;;4.53;2.70;;;;;;;27.43;43.33;99665.25;12217018;19;20002;-85
2023/09/15 15:51:02;;;;;;;6.07;3.05;;;;;;;27.12;43.55;99660.38;12197213;19;20014;-85
2023/09/15 15:55:05;;;;;;;4.18;2.90;;;;;;;26.88;44.83;99652.88;12213688;19;20484;-85
2023/09/15 15:59:07;;;;;;;5.35;2.85;;;;;;;26.64;44.85;99653.88;12208151;19;20018;-85
2023/09/15 16:03:09;;;;;;;7.72;3.45;;;;;;;26.39;45.86;99655.97;12184501;19;20031;-86
2023/09/15 16:07:11;;;;;;;8.93;3.45;;;;;;;26.26;47.05;99660.81;12210667;19;20007;-86
2023/09/15 16:11:13;;;;;;;8.55;2.97;;;;;;;26.10;49.71;99659.97;12203979;19;20007;-86
2023/09/15 16:15:15;;;;;;;7.43;3.85;;;;;;;25.89;50.29;99660.94;12179560;19;19998;-84
2023/09/15 16:19:16;;;;;;;7.35;3.92;;;;;;;25.68;51.56;99657.44;12208015;19;20054;-85
2023/09/15 16:23:18;;;;;;;6.68;4.43;;;;;;;25.53;53.04;99661.00;12210923;19;20010;-83
2023/09/15 16:27:20;;;;;;;6.75;4.07;;;;;;;25.32;53.81;99655.47;12189820;19;20093;-84
2023/09/15 16:31:22;;;;;;;5.63;3.55;;;;;;;25.16;54.27;99658.16;12204647;19;20537;-86
2023/09/15 16:35:24;;;;;;;4.65;2.95;;;;;;;24.94;56.08;99645.31;12204205;19;20010;-85
2023/09/15 16:39:26;;;;;;;4.65;3.63;;;;;;;24.75;56.69;99646.69;12184089;19;20107;-83
2023/09/15 16:43:31;;;;;;;5.68;3.67;;;;;;;24.61;57.83;99656.63;12211283;19;20102;-84
2023/09/15 16:47:33;;;;;;;10.52;4.85;;;;;;;24.37;59.65;99654.53;12205025;19;20559;-84
2023/09/15 16:51:35;;;;;;;5.43;2.97;;;;;;;24.21;60.53;99655.16;12185530;19;20980;-84
2023/09/15 16:55:37;;;;;;;6.53;3.93;;;;;;;24.01;62.52;99651.19;12205130;19;20272;-86
2023/09/15 16:59:38;;;;;;;4.67;3.13;;;;;;;23.82;62.76;99657.28;12199103;19;20007;-85
2023/09/15 17:03:40;;;;;;;5.57;3.50;;;;;;;23.66;63.86;99654.22;12179382;19;20789;-85
2023/09/15 17:07:42;;;;;;;4.25;3.13;;;;;;;23.41;65.75;99653.25;12206739;19;20037;-85
2023/09/15 17:11:44;;;;;;;5.37;3.63;;;;;;;23.18;66.92;99655.50;12204867;19;20039;-86
2023/09/15 17:15:48;;;;;;;5.53;3.20;;;;;;;22.92;68.77;99657.56;12179715;19;20022;-85
2023/09/15 17:19:50;;;;;;;6.63;3.60;;;;;;;22.71;70.46;99647.06;12199766;19;20291;-84
2023/09/15 17:23:52;;;;;;;5.93;3.90;;;;;;;22.52;71.23;99646.63;12202696;19;21007;-86
2023/09/15 17:27:54;;;;;;;4.90;3.78;;;;;;;22.35;72.30;99650.28;12184583;19;20014;-85
2023/09/15 17:31:55;;;;;;;5.13;3.37;;;;;;;22.16;72.31;99650.63;12196154;19;20038;-84
2023/09/15 17:35:59;;;;;;;7.27;3.93;;;;;;;21.98;72.31;99649.78;12196036;19;20006;-83
2023/09/15 17:40:04;;;;;;;7.13;4.15;;;;;;;21.88;74.26;99652.09;12173091;19;20417;-84
2023/09/15 17:44:07;;;;;;;5.82;3.47;;;;;;;21.72;73.97;99654.56;12197844;19;20088;-84
2023/09/15 17:48:11;;;;;;;5.50;4.00;;;;;;;21.58;76.37;99655.50;12178840;19;20016;-85
2023/09/15 17:52:13;;;;;;;6.55;3.75;;;;;;;21.48;76.71;99655.00;12212080;19;20082;-85
2023/09/15 17:56:15;;;;;;;4.70;3.17;;;;;;;21.39;77.06;99641.81;12212743;19;20007;-85
2023/09/15 18:00:19;;;;;;;6.03;4.13;;;;;;;21.32;77.47;99649.81;12188758;19;20002;-85
2023/09/15 18:04:21;;;;;;;6.40;3.90;;;;;;;21.31;78.24;99645.38;12209397;19;20019;-86
2023/09/15 18:08:23;;;;;;;6.40;3.67;;;;;;;21.23;79.33;99637.75;12210190;19;20018;-85
2023/09/15 18:12:24;;;;;;;8.13;3.80;;;;;;;21.16;80.42;99638.22;12187220;19;20019;-84
2023/09/15 18:16:26;;;;;;;7.70;4.23;;;;;;;21.04;81.75;99637.22;12207640;19;20026;-83
2023/09/15 18:20:28;;;;;;;5.53;3.90;;;;;;;21.04;81.63;99646.44;12205623;19;20244;-85
2023/09/15 18:24:31;;;;;;;7.97;4.05;;;;;;;21.00;82.09;99637.03;12185034;19;20469;-85
2023/09/15 18:28:33;;;;;;;5.40;3.35;;;;;;;20.95;82.15;99642.78;12206544;19;20851;-85
2023/09/15 18:32:36;;;;;;;6.53;4.22;;;;;;;20.94;84.01;99633.56;12208413;19;20003;-85
2023/09/15 18:36:37;;;;;;;;;;;;;;;20.87;83.68;99633.16;12185128;19;20017;-85
2023/09/15 18:40:39;;;;;;;7.68;3.90;;;;;;;20.85;83.77;99641.09;12207376;19;19919;-86